Terminal Aerodrome Forecast
Issued by NWS

Current Version | Previous Version | Text Only | Print | Product List | Glossary On
Versions: 1 2 3 4 5 6 7 8 9 10 11 12 13
000
FTAK31 PAJN 261700
TAFAPG
TAF
PAPG 261736Z 2618/2718 04004KT P6SM -RA SCT025 BKN045 OVC060
     FM262000 10010KT 6SM -RA BR SCT015 OVC035
     FM270100 VRB03KT 6SM -RA BR SCT015 OVC025
     FM270500 21004KT 6SM -RA BR SCT006 BKN015 OVC025
     FM271100 VRB03KT 3SM -RA BCFG SCT006 BKN010 OVC025
     FM271600 04003KT 6SM -RA BR FEW006 BKN020 OVC035
      AMD LTD TO CLD VIS AND WIND 2706/2715=

USA.gov is the U.S. government's official web portal to all federal, state and local government web resources and services.